sensor_id;sensor_type;location;lat;lon;timestamp;pressure;altitude;pressure_sealevel;temperature;humidity
74631;BME280;63138;55.082;38.804;2023-10-31T00:01:52;99240.03;;;10.85;100.00
74631;BME280;63138;55.082;38.804;2023-10-31T00:04:19;99227.91;;;10.87;100.00
74631;BME280;63138;55.082;38.804;2023-10-31T00:06:44;99218.94;;;10.87;100.00
74631;BME280;63138;55.082;38.804;2023-10-31T00:09:10;99225.44;;;10.86;100.00
74631;BME280;63138;55.082;38.804;2023-10-31T00:11:36;99220.00;;;10.86;100.00
74631;BME280;63138;55.082;38.804;2023-10-31T00:14:03;99213.69;;;10.85;100.00
74631;BME280;63138;55.082;38.804;2023-10-31T00:16:29;99237.69;;;10.82;100.00
74631;BME280;63138;55.082;38.804;2023-10-31T00:18:54;99235.78;;;10.76;100.00
74631;BME280;63138;55.082;38.804;2023-10-31T00:21:21;99236.16;;;10.73;100.00
74631;BME280;63138;55.082;38.804;2023-10-31T00:23:47;99236.16;;;10.73;100.00
74631;BME280;63138;55.082;38.804;2023-10-31T00:26:14;99236.53;;;10.69;100.00
74631;BME280;63138;55.082;38.804;2023-10-31T00:28:47;99237.97;;;10.65;100.00
74631;BME280;63138;55.082;38.804;2023-10-31T00:31:13;99245.91;;;10.67;100.00
74631;BME280;63138;55.082;38.804;2023-10-31T00:33:40;99238.34;;;10.62;100.00
74631;BME280;63138;55.082;38.804;2023-10-31T00:36:06;99237.66;;;10.54;100.00
74631;BME280;63138;55.082;38.804;2023-10-31T00:38:33;99240.59;;;10.59;100.00
74631;BME280;63138;55.082;38.804;2023-10-31T00:40:59;99247.28;;;10.56;100.00
74631;BME280;63138;55.082;38.804;2023-10-31T00:43:25;99257.03;;;10.50;100.00
74631;BME280;63138;55.082;38.804;2023-10-31T00:45:51;99239.28;;;10.48;100.00
74631;BME280;63138;55.082;38.804;2023-10-31T00:48:18;99252.19;;;10.46;100.00
74631;BME280;63138;55.082;38.804;2023-10-31T00:50:44;99257.16;;;10.42;100.00
74631;BME280;63138;55.082;38.804;2023-10-31T00:53:10;99261.28;;;10.38;100.00
74631;BME280;63138;55.082;38.804;2023-10-31T00:55:36;99257.09;;;10.36;100.00
74631;BME280;63138;55.082;38.804;2023-10-31T00:58:03;99273.94;;;10.31;100.00
74631;BME280;63138;55.082;38.804;2023-10-31T01:00:29;99272.75;;;10.33;100.00
74631;BME280;63138;55.082;38.804;2023-10-31T01:02:55;99281.72;;;10.34;100.00
74631;BME280;63138;55.082;38.804;2023-10-31T01:05:21;99281.22;;;10.30;100.00
74631;BME280;63138;55.082;38.804;2023-10-31T01:07:47;99288.25;;;10.25;100.00
74631;BME280;63138;55.082;38.804;2023-10-31T01:10:13;99296.13;;;10.20;100.00
74631;BME280;63138;55.082;38.804;2023-10-31T01:12:39;99279.75;;;10.13;100.00
74631;BME280;63138;55.082;38.804;2023-10-31T01:15:05;99293.69;;;10.10;100.00
74631;BME280;63138;55.082;38.804;2023-10-31T01:17:31;99286.31;;;10.04;100.00
74631;BME280;63138;55.082;38.804;2023-10-31T01:20:15;99287.47;;;9.94;100.00
74631;BME280;63138;55.082;38.804;2023-10-31T01:22:41;99301.75;;;9.88;100.00
74631;BME280;63138;55.082;38.804;2023-10-31T01:25:07;99314.19;;;9.83;100.00
74631;BME280;63138;55.082;38.804;2023-10-31T01:27:33;99313.91;;;9.77;100.00
74631;BME280;63138;55.082;38.804;2023-10-31T01:29:59;99310.94;;;9.72;100.00
74631;BME280;63138;55.082;38.804;2023-10-31T01:32:24;99312.13;;;9.70;100.00
74631;BME280;63138;55.082;38.804;2023-10-31T01:34:50;99309.72;;;9.60;100.00
74631;BME280;63138;55.082;38.804;2023-10-31T01:37:16;99316.16;;;9.59;100.00
74631;BME280;63138;55.082;38.804;2023-10-31T01:39:45;99329.06;;;9.57;100.00
74631;BME280;63138;55.082;38.804;2023-10-31T01:42:13;99331.28;;;9.53;100.00
74631;BME280;63138;55.082;38.804;2023-10-31T01:44:40;99344.38;;;9.50;100.00
74631;BME280;63138;55.082;38.804;2023-10-31T01:47:06;99347.63;;;9.45;100.00
74631;BME280;63138;55.082;38.804;2023-10-31T01:49:36;99342.94;;;9.39;100.00
74631;BME280;63138;55.082;38.804;2023-10-31T01:52:05;99355.84;;;9.37;100.00
74631;BME280;63138;55.082;38.804;2023-10-31T01:54:35;99366.19;;;9.33;100.00
74631;BME280;63138;55.082;38.804;2023-10-31T01:57:02;99357.59;;;9.30;100.00
74631;BME280;63138;55.082;38.804;2023-10-31T01:59:30;99365.06;;;9.28;100.00
74631;BME280;63138;55.082;38.804;2023-10-31T02:01:57;99363.53;;;9.25;100.00
74631;BME280;63138;55.082;38.804;2023-10-31T02:04:24;99371.84;;;9.24;100.00
74631;BME280;63138;55.082;38.804;2023-10-31T02:06:50;99384.09;;;9.19;100.00
74631;BME280;63138;55.082;38.804;2023-10-31T02:09:20;99385.34;;;9.09;100.00
74631;BME280;63138;55.082;38.804;2023-10-31T02:11:50;99399.44;;;9.04;100.00
74631;BME280;63138;55.082;38.804;2023-10-31T02:14:16;99399.81;;;9.01;100.00
74631;BME280;63138;55.082;38.804;2023-10-31T02:16:43;99404.25;;;8.94;100.00
74631;BME280;63138;55.082;38.804;2023-10-31T02:19:09;99412.56;;;8.92;100.00
74631;BME280;63138;55.082;38.804;2023-10-31T02:21:40;99413.97;;;8.80;100.00
74631;BME280;63138;55.082;38.804;2023-10-31T02:24:06;99428.06;;;8.75;100.00
74631;BME280;63138;55.082;38.804;2023-10-31T02:26:34;99427.09;;;8.68;100.00
74631;BME280;63138;55.082;38.804;2023-10-31T02:29:01;99437.41;;;8.65;100.00
74631;BME280;63138;55.082;38.804;2023-10-31T02:31:27;99434.56;;;8.58;100.00
74631;BME280;63138;55.082;38.804;2023-10-31T02:33:53;99448.44;;;8.55;100.00
74631;BME280;63138;55.082;38.804;2023-10-31T02:36:19;99458.28;;;8.48;100.00
74631;BME280;63138;55.082;38.804;2023-10-31T02:38:45;99460.13;;;8.39;100.00
74631;BME280;63138;55.082;38.804;2023-10-31T02:41:13;99471.16;;;8.37;100.00
74631;BME280;63138;55.082;38.804;2023-10-31T02:43:40;99468.97;;;8.33;100.00
74631;BME280;63138;55.082;38.804;2023-10-31T02:46:06;99472.00;;;8.30;100.00
74631;BME280;63138;55.082;38.804;2023-10-31T02:48:32;99479.28;;;8.29;100.00
74631;BME280;63138;55.082;38.804;2023-10-31T02:51:07;99483.34;;;8.25;100.00
74631;BME280;63138;55.082;38.804;2023-10-31T02:53:34;99489.28;;;8.20;100.00
74631;BME280;63138;55.082;38.804;2023-10-31T02:56:00;99507.03;;;8.23;100.00
74631;BME280;63138;55.082;38.804;2023-10-31T02:58:26;99503.13;;;8.17;100.00
74631;BME280;63138;55.082;38.804;2023-10-31T03:01:10;99513.78;;;8.19;100.00
74631;BME280;63138;55.082;38.804;2023-10-31T03:03:35;99523.94;;;8.17;100.00
74631;BME280;63138;55.082;38.804;2023-10-31T03:06:02;99526.31;;;8.20;100.00
74631;BME280;63138;55.082;38.804;2023-10-31T03:08:27;99518.53;;;8.17;100.00
74631;BME280;63138;55.082;38.804;2023-10-31T03:10:53;99524.44;;;8.20;100.00
74631;BME280;63138;55.082;38.804;2023-10-31T03:13:19;99526.63;;;8.17;100.00
74631;BME280;63138;55.082;38.804;2023-10-31T03:15:45;99531.88;;;8.18;100.00
74631;BME280;63138;55.082;38.804;2023-10-31T03:18:11;99533.59;;;8.19;100.00
74631;BME280;63138;55.082;38.804;2023-10-31T03:20:37;99547.28;;;8.18;100.00
74631;BME280;63138;55.082;38.804;2023-10-31T03:23:03;99546.59;;;8.16;100.00
74631;BME280;63138;55.082;38.804;2023-10-31T03:25:29;99556.56;;;8.15;100.00
74631;BME280;63138;55.082;38.804;2023-10-31T03:27:56;99561.97;;;8.15;100.00
74631;BME280;63138;55.082;38.804;2023-10-31T03:30:22;99565.53;;;8.16;100.00
74631;BME280;63138;55.082;38.804;2023-10-31T03:32:49;99566.88;;;8.20;100.00
74631;BME280;63138;55.082;38.804;2023-10-31T03:35:33;99563.63;;;8.24;100.00
74631;BME280;63138;55.082;38.804;2023-10-31T03:37:58;99570.91;;;8.24;100.00
74631;BME280;63138;55.082;38.804;2023-10-31T03:40:24;99575.31;;;8.25;100.00
74631;BME280;63138;55.082;38.804;2023-10-31T03:42:50;99570.59;;;8.19;100.00
74631;BME280;63138;55.082;38.804;2023-10-31T03:45:16;99588.69;;;8.18;100.00
74631;BME280;63138;55.082;38.804;2023-10-31T03:47:42;99586.13;;;8.17;100.00
74631;BME280;63138;55.082;38.804;2023-10-31T03:50:09;99595.28;;;8.16;100.00
74631;BME280;63138;55.082;38.804;2023-10-31T03:52:34;99585.31;;;8.16;100.00
74631;BME280;63138;55.082;38.804;2023-10-31T03:55:00;99585.13;;;8.10;100.00
74631;BME280;63138;55.082;38.804;2023-10-31T03:57:26;99602.38;;;8.09;100.00
74631;BME280;63138;55.082;38.804;2023-10-31T03:59:52;99611.81;;;8.04;100.00
74631;BME280;63138;55.082;38.804;2023-10-31T04:02:18;99610.47;;;8.00;100.00
74631;BME280;63138;55.082;38.804;2023-10-31T04:04:44;99618.75;;;7.99;100.00
74631;BME280;63138;55.082;38.804;2023-10-31T04:07:09;99622.97;;;7.93;100.00
74631;BME280;63138;55.082;38.804;2023-10-31T04:09:36;99631.09;;;7.93;100.00
74631;BME280;63138;55.082;38.804;2023-10-31T04:12:02;99625.84;;;7.92;100.00
74631;BME280;63138;55.082;38.804;2023-10-31T04:14:27;99632.44;;;7.89;100.00
74631;BME280;63138;55.082;38.804;2023-10-31T04:16:53;99629.91;;;7.88;100.00
74631;BME280;63138;55.082;38.804;2023-10-31T04:19:19;99631.09;;;7.85;100.00
74631;BME280;63138;55.082;38.804;2023-10-31T04:21:45;99630.75;;;7.80;100.00
74631;BME280;63138;55.082;38.804;2023-10-31T04:24:36;99636.31;;;7.78;100.00
74631;BME280;63138;55.082;38.804;2023-10-31T04:27:02;99649.16;;;7.76;100.00
74631;BME280;63138;55.082;38.804;2023-10-31T04:29:28;99646.09;;;7.71;100.00
74631;BME280;63138;55.082;38.804;2023-10-31T04:31:53;99653.38;;;7.71;100.00
74631;BME280;63138;55.082;38.804;2023-10-31T04:34:19;99653.53;;;7.69;100.00
74631;BME280;63138;55.082;38.804;2023-10-31T04:36:45;99658.25;;;7.67;100.00
74631;BME280;63138;55.082;38.804;2023-10-31T04:39:11;99664.97;;;7.63;100.00
74631;BME280;63138;55.082;38.804;2023-10-31T04:41:38;99666.84;;;7.62;100.00
74631;BME280;63138;55.082;38.804;2023-10-31T04:44:04;99669.03;;;7.59;100.00
74631;BME280;63138;55.082;38.804;2023-10-31T04:46:29;99672.91;;;7.56;100.00
74631;BME280;63138;55.082;38.804;2023-10-31T04:48:55;99674.75;;;7.56;100.00
74631;BME280;63138;55.082;38.804;2023-10-31T04:51:22;99678.66;;;7.53;100.00
74631;BME280;63138;55.082;38.804;2023-10-31T04:53:47;99682.34;;;7.52;100.00
74631;BME280;63138;55.082;38.804;2023-10-31T04:56:15;99684.56;;;7.57;100.00
74631;BME280;63138;55.082;38.804;2023-10-31T04:58:42;99694.34;;;7.58;100.00
74631;BME280;63138;55.082;38.804;2023-10-31T05:01:09;99693.72;;;7.64;100.00
74631;BME280;63138;55.082;38.804;2023-10-31T05:03:34;99700.78;;;7.65;100.00
74631;BME280;63138;55.082;38.804;2023-10-31T05:06:00;99701.00;;;7.72;100.00
74631;BME280;63138;55.082;38.804;2023-10-31T05:08:26;99708.28;;;7.79;100.00
74631;BME280;63138;55.082;38.804;2023-10-31T05:10:52;99713.88;;;7.86;100.00
74631;BME280;63138;55.082;38.804;2023-10-31T05:13:17;99721.13;;;8.45;100.00
74631;BME280;63138;55.082;38.804;2023-10-31T05:15:44;99729.69;;;9.14;100.00
74631;BME280;63138;55.082;38.804;2023-10-31T05:18:09;99740.66;;;9.76;100.00
74631;BME280;63138;55.082;38.804;2023-10-31T05:20:35;99726.97;;;10.32;100.00
74631;BME280;63138;55.082;38.804;2023-10-31T05:23:01;99714.06;;;10.96;100.00
74631;BME280;63138;55.082;38.804;2023-10-31T05:25:27;99685.50;;;11.44;100.00
74631;BME280;63138;55.082;38.804;2023-10-31T05:27:52;99645.44;;;11.90;100.00
74631;BME280;63138;55.082;38.804;2023-10-31T05:30:18;99613.22;;;12.08;100.00
74631;BME280;63138;55.082;38.804;2023-10-31T05:32:44;99595.72;;;12.39;100.00
74631;BME280;63138;55.082;38.804;2023-10-31T05:35:10;99592.88;;;12.82;100.00
74631;BME280;63138;55.082;38.804;2023-10-31T05:37:36;99601.63;;;13.54;100.00
74631;BME280;63138;55.082;38.804;2023-10-31T05:40:02;99591.22;;;13.84;100.00
74631;BME280;63138;55.082;38.804;2023-10-31T05:42:29;99590.44;;;14.24;100.00
74631;BME280;63138;55.082;38.804;2023-10-31T05:44:54;99591.75;;;14.61;100.00
74631;BME280;63138;55.082;38.804;2023-10-31T05:47:20;99594.41;;;15.01;100.00
74631;BME280;63138;55.082;38.804;2023-10-31T05:49:46;99604.97;;;14.91;100.00
74631;BME280;63138;55.082;38.804;2023-10-31T05:52:12;99593.00;;;14.72;100.00
74631;BME280;63138;55.082;38.804;2023-10-31T05:54:38;99594.88;;;14.58;100.00
74631;BME280;63138;55.082;38.804;2023-10-31T05:57:22;99604.03;;;13.70;100.00
74631;BME280;63138;55.082;38.804;2023-10-31T05:59:47;99605.78;;;13.43;100.00
74631;BME280;63138;55.082;38.804;2023-10-31T06:02:14;99607.31;;;13.52;100.00
74631;BME280;63138;55.082;38.804;2023-10-31T06:04:40;99609.78;;;14.15;100.00
74631;BME280;63138;55.082;38.804;2023-10-31T06:07:06;99612.13;;;14.79;100.00
74631;BME280;63138;55.082;38.804;2023-10-31T06:09:32;99610.84;;;14.81;100.00
74631;BME280;63138;55.082;38.804;2023-10-31T06:12:01;99611.25;;;14.91;100.00
74631;BME280;63138;55.082;38.804;2023-10-31T06:14:26;99627.56;;;15.32;100.00
74631;BME280;63138;55.082;38.804;2023-10-31T06:16:52;99626.78;;;15.70;100.00
74631;BME280;63138;55.082;38.804;2023-10-31T06:19:19;99625.69;;;16.48;100.00
74631;BME280;63138;55.082;38.804;2023-10-31T06:21:45;99634.41;;;16.63;100.00
74631;BME280;63138;55.082;38.804;2023-10-31T06:24:11;99638.09;;;16.75;100.00
74631;BME280;63138;55.082;38.804;2023-10-31T06:26:37;99632.84;;;16.74;100.00
74631;BME280;63138;55.082;38.804;2023-10-31T06:29:03;99649.91;;;16.76;100.00
74631;BME280;63138;55.082;38.804;2023-10-31T06:31:29;99649.28;;;16.99;100.00
74631;BME280;63138;55.082;38.804;2023-10-31T06:33:55;99647.56;;;17.23;100.00
74631;BME280;63138;55.082;38.804;2023-10-31T06:36:22;99652.84;;;17.62;100.00
74631;BME280;63138;55.082;38.804;2023-10-31T06:38:47;99650.09;;;17.62;100.00
74631;BME280;63138;55.082;38.804;2023-10-31T06:41:13;99652.81;;;17.25;100.00
74631;BME280;63138;55.082;38.804;2023-10-31T06:43:39;99654.84;;;16.92;100.00
74631;BME280;63138;55.082;38.804;2023-10-31T06:46:05;99656.19;;;17.27;100.00
74631;BME280;63138;55.082;38.804;2023-10-31T06:48:31;99648.66;;;17.22;100.00
74631;BME280;63138;55.082;38.804;2023-10-31T06:50:57;99656.66;;;17.42;100.00
74631;BME280;63138;55.082;38.804;2023-10-31T06:53:22;99659.69;;;17.71;100.00
74631;BME280;63138;55.082;38.804;2023-10-31T06:55:48;99666.72;;;17.67;100.00
74631;BME280;63138;55.082;38.804;2023-10-31T06:58:14;99671.34;;;17.85;100.00
74631;BME280;63138;55.082;38.804;2023-10-31T07:00:40;99672.16;;;18.04;100.00
74631;BME280;63138;55.082;38.804;2023-10-31T07:03:06;99674.97;;;18.15;100.00
74631;BME280;63138;55.082;38.804;2023-10-31T07:05:37;99681.66;;;17.71;100.00
74631;BME280;63138;55.082;38.804;2023-10-31T07:08:03;99686.09;;;17.72;100.00
74631;BME280;63138;55.082;38.804;2023-10-31T07:10:30;99689.22;;;17.75;100.00
74631;BME280;63138;55.082;38.804;2023-10-31T07:12:56;99697.38;;;17.45;100.00
74631;BME280;63138;55.082;38.804;2023-10-31T07:15:21;99702.38;;;17.48;100.00
74631;BME280;63138;55.082;38.804;2023-10-31T07:17:47;99710.47;;;17.80;100.00
74631;BME280;63138;55.082;38.804;2023-10-31T07:20:13;99715.94;;;17.25;100.00
74631;BME280;63138;55.082;38.804;2023-10-31T07:22:39;99711.75;;;16.65;100.00
74631;BME280;63138;55.082;38.804;2023-10-31T07:25:06;99716.91;;;16.23;100.00
74631;BME280;63138;55.082;38.804;2023-10-31T07:27:32;99722.88;;;16.07;100.00
74631;BME280;63138;55.082;38.804;2023-10-31T07:29:58;99721.59;;;16.09;100.00
74631;BME280;63138;55.082;38.804;2023-10-31T07:32:24;99734.25;;;16.03;100.00
74631;BME280;63138;55.082;38.804;2023-10-31T07:34:52;99722.72;;;15.88;100.00
74631;BME280;63138;55.082;38.804;2023-10-31T07:37:18;99726.69;;;15.99;100.00
74631;BME280;63138;55.082;38.804;2023-10-31T07:39:44;99711.63;;;15.76;100.00
74631;BME280;63138;55.082;38.804;2023-10-31T07:42:09;99725.53;;;15.75;100.00
74631;BME280;63138;55.082;38.804;2023-10-31T07:44:35;99728.66;;;15.85;100.00
74631;BME280;63138;55.082;38.804;2023-10-31T07:47:01;99733.09;;;15.73;100.00
74631;BME280;63138;55.082;38.804;2023-10-31T07:49:27;99733.59;;;15.23;100.00
74631;BME280;63138;55.082;38.804;2023-10-31T07:51:54;99733.56;;;15.49;100.00
74631;BME280;63138;55.082;38.804;2023-10-31T07:54:20;99745.41;;;15.23;100.00
74631;BME280;63138;55.082;38.804;2023-10-31T07:56:46;99742.66;;;15.37;100.00
74631;BME280;63138;55.082;38.804;2023-10-31T07:59:12;99752.88;;;15.68;100.00
74631;BME280;63138;55.082;38.804;2023-10-31T08:01:37;99749.22;;;15.09;100.00
74631;BME280;63138;55.082;38.804;2023-10-31T08:04:03;99759.19;;;14.48;100.00
74631;BME280;63138;55.082;38.804;2023-10-31T08:06:29;99759.63;;;14.52;100.00
74631;BME280;63138;55.082;38.804;2023-10-31T08:08:55;99754.38;;;14.50;100.00
74631;BME280;63138;55.082;38.804;2023-10-31T08:11:21;99757.81;;;14.99;100.00
74631;BME280;63138;55.082;38.804;2023-10-31T08:13:47;99760.53;;;15.19;100.00
74631;BME280;63138;55.082;38.804;2023-10-31T08:16:18;99764.47;;;14.57;100.00
74631;BME280;63138;55.082;38.804;2023-10-31T08:18:46;99760.88;;;13.88;100.00
74631;BME280;63138;55.082;38.804;2023-10-31T08:21:13;99767.19;;;13.53;100.00
74631;BME280;63138;55.082;38.804;2023-10-31T08:23:39;99757.34;;;13.59;100.00
74631;BME280;63138;55.082;38.804;2023-10-31T08:26:24;99764.91;;;13.57;100.00
74631;BME280;63138;55.082;38.804;2023-10-31T08:28:49;99773.03;;;13.44;100.00
74631;BME280;63138;55.082;38.804;2023-10-31T08:31:17;99771.22;;;13.29;100.00
74631;BME280;63138;55.082;38.804;2023-10-31T08:33:43;99771.88;;;13.31;100.00
74631;BME280;63138;55.082;38.804;2023-10-31T08:36:09;99768.91;;;13.05;100.00
74631;BME280;63138;55.082;38.804;2023-10-31T08:38:35;99769.72;;;12.98;100.00
74631;BME280;63138;55.082;38.804;2023-10-31T08:41:01;99773.22;;;12.49;100.00
74631;BME280;63138;55.082;38.804;2023-10-31T08:43:28;99782.00;;;12.30;100.00
74631;BME280;63138;55.082;38.804;2023-10-31T08:45:54;99779.16;;;12.38;100.00
74631;BME280;63138;55.082;38.804;2023-10-31T08:48:19;99780.63;;;12.19;100.00
74631;BME280;63138;55.082;38.804;2023-10-31T08:50:45;99768.75;;;12.05;100.00
74631;BME280;63138;55.082;38.804;2023-10-31T08:53:11;99780.00;;;11.72;100.00
74631;BME280;63138;55.082;38.804;2023-10-31T08:55:37;99778.59;;;11.46;100.00
74631;BME280;63138;55.082;38.804;2023-10-31T08:58:03;99777.63;;;11.24;100.00
74631;BME280;63138;55.082;38.804;2023-10-31T09:00:29;99770.25;;;11.33;100.00
74631;BME280;63138;55.082;38.804;2023-10-31T09:02:55;99773.91;;;11.40;100.00
74631;BME280;63138;55.082;38.804;2023-10-31T09:05:21;99774.91;;;11.39;100.00
74631;BME280;63138;55.082;38.804;2023-10-31T09:07:46;99775.84;;;11.46;100.00
74631;BME280;63138;55.082;38.804;2023-10-31T09:10:13;99778.94;;;11.28;100.00
74631;BME280;63138;55.082;38.804;2023-10-31T09:12:39;99778.84;;;11.22;100.00
74631;BME280;63138;55.082;38.804;2023-10-31T09:15:06;99770.00;;;11.20;100.00
74631;BME280;63138;55.082;38.804;2023-10-31T09:17:32;99772.66;;;11.28;100.00
74631;BME280;63138;55.082;38.804;2023-10-31T09:19:57;99774.72;;;11.11;100.00
74631;BME280;63138;55.082;38.804;2023-10-31T09:22:25;99789.75;;;10.99;100.00
74631;BME280;63138;55.082;38.804;2023-10-31T09:24:51;99783.47;;;10.98;100.00
74631;BME280;63138;55.082;38.804;2023-10-31T09:27:17;99792.78;;;10.81;100.00
74631;BME280;63138;55.082;38.804;2023-10-31T09:29:42;99800.28;;;10.79;100.00
74631;BME280;63138;55.082;38.804;2023-10-31T09:32:09;99797.63;;;10.70;100.00
74631;BME280;63138;55.082;38.804;2023-10-31T09:34:34;99789.94;;;10.51;100.00
74631;BME280;63138;55.082;38.804;2023-10-31T09:37:01;99799.41;;;10.55;100.00
74631;BME280;63138;55.082;38.804;2023-10-31T09:39:26;99798.97;;;10.51;100.00
74631;BME280;63138;55.082;38.804;2023-10-31T09:41:54;99796.59;;;10.48;100.00
74631;BME280;63138;55.082;38.804;2023-10-31T09:44:20;99801.13;;;10.56;100.00
74631;BME280;63138;55.082;38.804;2023-10-31T09:47:11;99794.13;;;10.85;100.00
74631;BME280;63138;55.082;38.804;2023-10-31T09:49:37;99798.81;;;10.91;100.00
74631;BME280;63138;55.082;38.804;2023-10-31T09:52:04;99785.09;;;11.07;100.00
74631;BME280;63138;55.082;38.804;2023-10-31T09:54:33;99791.66;;;11.13;100.00
74631;BME280;63138;55.082;38.804;2023-10-31T09:56:59;99795.59;;;11.10;100.00
74631;BME280;63138;55.082;38.804;2023-10-31T09:59:25;99798.31;;;11.10;100.00
74631;BME280;63138;55.082;38.804;2023-10-31T10:01:51;99791.66;;;11.13;100.00
74631;BME280;63138;55.082;38.804;2023-10-31T10:04:16;99800.38;;;11.23;100.00
74631;BME280;63138;55.082;38.804;2023-10-31T10:06:59;99800.38;;;11.23;100.00
74631;BME280;63138;55.082;38.804;2023-10-31T10:09:25;99791.41;;;11.23;100.00
74631;BME280;63138;55.082;38.804;2023-10-31T10:11:51;99789.91;;;11.35;100.00
74631;BME280;63138;55.082;38.804;2023-10-31T10:14:17;99777.75;;;11.31;100.00
74631;BME280;63138;55.082;38.804;2023-10-31T10:16:44;99775.09;;;11.38;100.00
74631;BME280;63138;55.082;38.804;2023-10-31T10:19:21;99771.84;;;11.57;100.00
74631;BME280;63138;55.082;38.804;2023-10-31T10:21:56;99786.94;;;11.75;100.00
74631;BME280;63138;55.082;38.804;2023-10-31T10:24:23;99782.81;;;11.79;100.00
74631;BME280;63138;55.082;38.804;2023-10-31T10:26:50;99782.81;;;11.64;100.00
74631;BME280;63138;55.082;38.804;2023-10-31T10:29:17;99783.09;;;11.84;100.00
74631;BME280;63138;55.082;38.804;2023-10-31T10:31:43;99783.69;;;11.94;100.00
74631;BME280;63138;55.082;38.804;2023-10-31T10:34:12;99777.94;;;12.04;100.00
74631;BME280;63138;55.082;38.804;2023-10-31T10:36:39;99791.63;;;12.11;100.00
74631;BME280;63138;55.082;38.804;2023-10-31T10:39:05;99794.94;;;11.91;100.00
74631;BME280;63138;55.082;38.804;2023-10-31T10:41:34;99784.50;;;11.80;100.00
74631;BME280;63138;55.082;38.804;2023-10-31T10:44:06;99779.81;;;11.89;100.00
74631;BME280;63138;55.082;38.804;2023-10-31T10:46:34;99769.66;;;11.82;100.00
74631;BME280;63138;55.082;38.804;2023-10-31T10:49:04;99780.19;;;11.85;100.00
74631;BME280;63138;55.082;38.804;2023-10-31T10:56:55;99766.94;;;11.82;100.00
74631;BME280;63138;55.082;38.804;2023-10-31T10:59:41;99775.38;;;11.88;100.00
74631;BME280;63138;55.082;38.804;2023-10-31T11:02:09;99769.66;;;11.82;100.00
74631;BME280;63138;55.082;38.804;2023-10-31T11:04:39;99774.28;;;11.82;100.00
74631;BME280;63138;55.082;38.804;2023-10-31T11:07:08;99772.19;;;11.84;100.00
74631;BME280;63138;55.082;38.804;2023-10-31T11:09:35;99770.72;;;11.81;100.00
74631;BME280;63138;55.082;38.804;2023-10-31T11:12:02;99774.00;;;11.92;100.00
74631;BME280;63138;55.082;38.804;2023-10-31T11:14:29;99770.59;;;11.90;100.00
74631;BME280;63138;55.082;38.804;2023-10-31T11:16:59;99770.25;;;11.93;100.00
74631;BME280;63138;55.082;38.804;2023-10-31T11:19:28;99762.75;;;11.95;100.00
74631;BME280;63138;55.082;38.804;2023-10-31T11:21:58;99762.75;;;11.95;100.00
74631;BME280;63138;55.082;38.804;2023-10-31T11:24:36;99763.13;;;11.92;100.00
74631;BME280;63138;55.082;38.804;2023-10-31T11:27:05;99762.94;;;11.93;100.00
74631;BME280;63138;55.082;38.804;2023-10-31T11:29:32;99771.94;;;11.94;100.00
74631;BME280;63138;55.082;38.804;2023-10-31T11:32:26;99764.81;;;11.93;100.00
74631;BME280;63138;55.082;38.804;2023-10-31T11:34:52;99764.44;;;11.96;100.00
74631;BME280;63138;55.082;38.804;2023-10-31T11:37:24;99759.66;;;11.98;100.00
74631;BME280;63138;55.082;38.804;2023-10-31T11:42:50;99757.94;;;11.97;100.00
74631;BME280;63138;55.082;38.804;2023-10-31T11:45:35;99747.84;;;11.91;100.00
74631;BME280;63138;55.082;38.804;2023-10-31T11:48:03;99735.22;;;11.90;100.00
74631;BME280;63138;55.082;38.804;2023-10-31T11:50:32;99745.66;;;11.86;100.00
74631;BME280;63138;55.082;38.804;2023-10-31T11:55:32;99743.06;;;11.78;100.00
74631;BME280;63138;55.082;38.804;2023-10-31T11:58:22;99744.06;;;11.77;100.00
74631;BME280;63138;55.082;38.804;2023-10-31T12:00:49;99743.97;;;11.70;100.00
74631;BME280;63138;55.082;38.804;2023-10-31T12:03:18;99743.59;;;11.73;100.00
74631;BME280;63138;55.082;38.804;2023-10-31T12:05:57;99739.88;;;11.74;100.00
74631;BME280;63138;55.082;38.804;2023-10-31T12:08:46;99747.16;;;11.74;100.00
74631;BME280;63138;55.082;38.804;2023-10-31T12:11:16;99745.94;;;11.76;100.00
74631;BME280;63138;55.082;38.804;2023-10-31T12:13:58;99747.38;;;11.72;100.00
74631;BME280;63138;55.082;38.804;2023-10-31T12:16:29;99745.31;;;11.74;100.00
74631;BME280;63138;55.082;38.804;2023-10-31T12:18:57;99751.94;;;11.72;100.00
74631;BME280;63138;55.082;38.804;2023-10-31T12:21:46;99751.75;;;11.73;100.00
74631;BME280;63138;55.082;38.804;2023-10-31T12:24:18;99749.41;;;11.70;100.00
74631;BME280;63138;55.082;38.804;2023-10-31T12:26:45;99760.69;;;11.67;100.00
74631;BME280;63138;55.082;38.804;2023-10-31T12:29:15;99748.13;;;11.66;100.00
74631;BME280;63138;55.082;38.804;2023-10-31T12:31:49;99751.47;;;11.68;100.00
74631;BME280;63138;55.082;38.804;2023-10-31T12:34:20;99754.84;;;11.70;100.00
74631;BME280;63138;55.082;38.804;2023-10-31T12:36:47;99743.97;;;11.70;100.00
74631;BME280;63138;55.082;38.804;2023-10-31T12:39:14;99740.59;;;11.68;100.00
74631;BME280;63138;55.082;38.804;2023-10-31T12:44:28;99738.66;;;11.62;100.00
74631;BME280;63138;55.082;38.804;2023-10-31T12:46:54;99747.47;;;11.64;100.00
74631;BME280;63138;55.082;38.804;2023-10-31T12:49:21;99747.00;;;11.60;100.00
74631;BME280;63138;55.082;38.804;2023-10-31T12:51:59;99744.81;;;11.56;100.00
74631;BME280;63138;55.082;38.804;2023-10-31T12:54:44;99750.00;;;11.51;100.00
74631;BME280;63138;55.082;38.804;2023-10-31T12:57:10;99759.19;;;11.50;100.00
74631;BME280;63138;55.082;38.804;2023-10-31T12:59:37;99762.91;;;11.48;100.00